Fruitland Park, Florida
Current Conditions -  °F | °C
As of 4:53 PM on Monday 22 Dec 2014 (Local Time) from KLEE Reporting Station
Clear Clear  
Wind Chill: 74°   Ceiling: Unl
Heat Index: 74°   Visibility: 10mi
Dew Point: 67°   Wind: 9mph
Humidity: 79%   Direction: 170°S
Pressure: 29.91"   Gusts: NA
Location:  28.86°N, 81.91°W
Report Text: KLEE 222153Z 17008KT 10SM CLR 23/19 A2991 RMK AO2 SLP126 T02330194
Loading
Personal Weather Stations






























Interactive Weather Map New forecast layout! Learn more

10-Day Weather Forecast

Advertisements
Track Severe Weather on mobile